Terminal Aerodrome Forecast
Issued by NWS Wilmington, NC

Home | Current Version | Previous Version | Text Only | Print | Product List | Glossary On
Versions: 1 2 3 4 5 6 7 8 9 10 11 12 13 14 15 16 17 18 19 20 21
000
FTUS42 KILM 180319 AAB
TAFMYR
TAF AMD
KMYR 180319Z 1803/1824 21004KT 3SM BR OVC005
      TEMPO 1803/1807 1SM BR OVC002
     FM180700 30005KT 2SM BR OVC004
      TEMPO 1807/1811 3SM BR OVC007
     FM181500 04014KT P6SM BKN050 BKN250
     FM181800 09014G20KT P6SM SCT250=

USA.gov is the U.S. government's official web portal to all federal, state and local government web resources and services.